createdAt,value
2019-02-10T00:01:10.109Z,8.51
2019-02-10T00:03:40.964Z,8.48
2019-02-10T00:06:10.555Z,8.46
2019-02-10T00:08:39.723Z,8.46
2019-02-10T00:11:08.923Z,8.44
2019-02-10T00:13:38.116Z,8.43
2019-02-10T00:16:10.467Z,8.44
2019-02-10T00:18:39.656Z,8.45
2019-02-10T00:21:08.823Z,8.45
2019-02-10T00:23:37.991Z,8.45
2019-02-10T00:26:07.213Z,8.48
2019-02-10T00:28:36.400Z,8.48
2019-02-10T00:31:05.572Z,8.48
2019-02-10T00:33:34.773Z,8.51
2019-02-10T00:36:04.018Z,8.51
2019-02-10T00:38:33.200Z,8.52
2019-02-10T00:41:02.394Z,8.52
2019-02-10T00:43:31.567Z,8.53
2019-02-10T00:46:00.759Z,8.48
2019-02-10T00:48:29.943Z,8.47
2019-02-10T00:50:59.213Z,8.46
2019-02-10T00:53:28.388Z,8.44
2019-02-10T00:55:57.574Z,8.44
2019-02-10T00:58:28.278Z,8.41
2019-02-10T01:00:57.455Z,8.40
2019-02-10T01:03:26.708Z,8.41
2019-02-10T01:05:55.905Z,8.44
2019-02-10T01:08:25.536Z,8.43
2019-02-10T01:10:54.723Z,8.40
2019-02-10T01:13:23.982Z,8.36
2019-02-10T01:15:53.147Z,8.34
2019-02-10T01:18:22.327Z,8.32
2019-02-10T01:20:51.535Z,8.34
2019-02-10T01:23:20.716Z,8.30
2019-02-10T01:25:49.907Z,8.31
2019-02-10T01:28:19.140Z,8.33
2019-02-10T01:30:48.315Z,8.26
2019-02-10T01:33:17.523Z,8.29
2019-02-10T01:35:46.694Z,8.29
2019-02-10T01:38:15.874Z,8.28
2019-02-10T01:40:45.082Z,8.27
2019-02-10T01:43:14.273Z,8.27
2019-02-10T01:45:43.421Z,8.26
2019-02-10T01:48:13.618Z,8.24
2019-02-10T01:50:42.795Z,8.25
2019-02-10T01:53:11.976Z,8.25
2019-02-10T01:55:41.151Z,8.21
2019-02-10T01:58:10.334Z,8.21
2019-02-10T02:00:39.564Z,8.17
2019-02-10T02:03:08.764Z,8.14
2019-02-10T02:05:37.935Z,8.11
2019-02-10T02:08:07.108Z,8.06
2019-02-10T02:10:36.298Z,8.03
2019-02-10T02:13:05.477Z,8.05
2019-02-10T02:15:34.653Z,8.04
2019-02-10T02:18:03.859Z,8.01
2019-02-10T02:20:33.018Z,8.01
2019-02-10T02:23:02.193Z,7.99
2019-02-10T02:25:31.391Z,7.99
2019-02-10T02:28:00.578Z,7.97
2019-02-10T02:30:29.752Z,7.96
2019-02-10T02:32:58.960Z,7.93
2019-02-10T02:35:28.138Z,7.87
2019-02-10T02:37:57.308Z,7.89
2019-02-10T02:40:26.502Z,7.87
2019-02-10T02:42:55.664Z,7.87
2019-02-10T02:45:24.838Z,7.85
2019-02-10T02:47:54.020Z,7.79
2019-02-10T02:50:23.183Z,7.76
2019-02-10T02:52:52.410Z,7.69
2019-02-10T02:55:21.597Z,7.66
2019-02-10T02:57:50.760Z,7.61
2019-02-10T03:00:19.945Z,7.60
2019-02-10T03:02:49.195Z,7.54
2019-02-10T03:05:18.359Z,7.48
2019-02-10T03:07:47.523Z,7.44
2019-02-10T03:10:16.696Z,7.43
2019-02-10T03:12:45.873Z,7.45
2019-02-10T03:15:15.118Z,7.42
2019-02-10T03:17:44.282Z,7.38
2019-02-10T03:20:13.435Z,7.33
2019-02-10T03:22:42.625Z,7.32
2019-02-10T03:25:11.832Z,7.31
2019-02-10T03:27:41.003Z,7.28
2019-02-10T03:30:11.577Z,7.27
2019-02-10T03:32:41.144Z,7.21
2019-02-10T03:35:10.379Z,7.17
2019-02-10T03:37:39.623Z,7.19
2019-02-10T03:40:10.248Z,7.16
2019-02-10T03:42:39.422Z,7.16
2019-02-10T03:45:09.643Z,7.13
2019-02-10T03:47:38.849Z,7.16
2019-02-10T03:50:09.745Z,7.12
2019-02-10T03:52:38.917Z,7.09
2019-02-10T03:55:12.342Z,7.08
2019-02-10T03:57:41.499Z,7.07
2019-02-10T04:00:13.879Z,7.02
2019-02-10T04:02:43.075Z,6.96
2019-02-10T04:05:12.248Z,6.99
2019-02-10T04:07:41.417Z,6.97
2019-02-10T04:10:11.073Z,6.91
2019-02-10T04:12:40.420Z,6.95
2019-02-10T04:15:10.596Z,6.97
2019-02-10T04:17:39.692Z,6.92
2019-02-10T04:20:09.636Z,6.98
2019-02-10T04:22:38.816Z,6.93
2019-02-10T04:25:08.150Z,6.96
2019-02-10T04:27:37.329Z,6.90
2019-02-10T04:30:09.584Z,6.90
2019-02-10T04:32:38.825Z,6.85
2019-02-10T04:35:07.996Z,6.84
2019-02-10T04:37:45.621Z,6.86
2019-02-10T04:40:08.349Z,6.82
2019-02-10T04:42:37.514Z,6.85
2019-02-10T04:45:06.819Z,6.84
2019-02-10T04:47:36.017Z,6.83
2019-02-10T04:50:06.340Z,6.88
2019-02-10T04:52:35.540Z,6.85
2019-02-10T04:55:05.862Z,6.84
2019-02-10T04:57:35.036Z,6.86
2019-02-10T05:00:06.423Z,6.85
2019-02-10T05:02:35.589Z,6.84
2019-02-10T05:05:05.509Z,6.86
2019-02-10T05:07:34.726Z,6.86
2019-02-10T05:10:03.887Z,6.93
2019-02-10T05:12:33.057Z,6.92
2019-02-10T05:15:02.255Z,6.89
2019-02-10T05:17:31.441Z,6.92
2019-02-10T05:20:00.620Z,6.92
2019-02-10T05:22:29.809Z,6.95
2019-02-10T05:24:58.926Z,6.93
2019-02-10T05:27:28.106Z,6.92
2019-02-10T05:29:57.329Z,6.95
2019-02-10T05:32:26.498Z,6.95
2019-02-10T05:34:55.680Z,7.01
2019-02-10T05:37:24.936Z,6.99
2019-02-10T05:39:54.107Z,7.02
2019-02-10T05:42:23.359Z,7.01
2019-02-10T05:44:52.558Z,7.06
2019-02-10T05:47:21.742Z,7.08
2019-02-10T05:49:50.839Z,7.09
2019-02-10T05:52:20.038Z,7.09
2019-02-10T05:54:49.137Z,7.10
2019-02-10T05:57:18.324Z,7.06
2019-02-10T05:59:47.511Z,7.09
2019-02-10T06:02:21.242Z,7.10
2019-02-10T06:04:50.416Z,7.19
2019-02-10T06:07:19.634Z,7.17
2019-02-10T06:09:48.808Z,7.22
2019-02-10T06:12:17.983Z,7.26
2019-02-10T06:14:47.264Z,7.28
2019-02-10T06:17:16.435Z,7.33
2019-02-10T06:19:45.653Z,7.38
2019-02-10T06:22:14.864Z,7.41
2019-02-10T06:24:44.055Z,7.46
2019-02-10T06:27:13.244Z,7.52
2019-02-10T06:29:42.500Z,7.59
2019-02-10T06:32:11.679Z,7.73
2019-02-10T06:34:40.856Z,7.86
2019-02-10T06:37:10.076Z,7.98
2019-02-10T06:39:39.351Z,8.17
2019-02-10T06:42:08.520Z,8.17
2019-02-10T06:44:37.737Z,8.31
2019-02-10T06:47:06.916Z,8.42
2019-02-10T06:49:36.103Z,8.47
2019-02-10T06:52:05.308Z,8.55
2019-02-10T06:54:34.571Z,8.58
2019-02-10T06:57:03.823Z,8.58
2019-02-10T06:59:40.250Z,8.61
2019-02-10T07:02:11.072Z,8.68
2019-02-10T07:04:40.253Z,8.72
2019-02-10T07:07:09.461Z,8.72
2019-02-10T07:09:38.566Z,8.74
2019-02-10T07:12:27.207Z,8.74
2019-02-10T07:14:59.427Z,8.77
2019-02-10T07:17:31.025Z,8.79
2019-02-10T07:20:37.599Z,8.79
2019-02-10T07:23:38.015Z,8.75
2019-02-10T07:26:09.799Z,8.75
2019-02-10T07:28:40.167Z,8.78
2019-02-10T07:31:09.408Z,8.76
2019-02-10T07:33:44.242Z,8.76
2019-02-10T07:36:31.072Z,8.79
2019-02-10T07:39:12.064Z,8.64
2019-02-10T07:41:46.802Z,8.13
2019-02-10T07:44:19.054Z,8.13
2019-02-10T07:47:06.336Z,8.13
2019-02-10T07:50:14.257Z,8.10
2019-02-10T07:53:07.615Z,8.16
2019-02-10T07:55:39.862Z,8.20
2019-02-10T07:58:14.932Z,8.19
2019-02-10T08:00:49.969Z,8.25
2019-02-10T08:03:27.874Z,8.25
2019-02-10T08:06:00.401Z,8.29
2019-02-10T08:08:49.571Z,8.32
2019-02-10T08:11:24.483Z,8.40
2019-02-10T08:14:14.524Z,8.40
2019-02-10T08:16:52.399Z,8.47
2019-02-10T08:19:42.432Z,8.53
2019-02-10T08:22:17.250Z,8.52
2019-02-10T08:24:58.036Z,8.51
2019-02-10T08:27:32.858Z,8.52
2019-02-10T08:30:24.250Z,8.50
2019-02-10T08:33:14.415Z,8.47
2019-02-10T08:36:01.554Z,8.46
2019-02-10T08:38:39.881Z,8.46
2019-02-10T08:41:23.562Z,8.42
2019-02-10T08:44:01.570Z,8.47
2019-02-10T08:46:33.801Z,8.38
2019-02-10T08:49:14.953Z,8.42
2019-02-10T08:52:01.766Z,8.42
2019-02-10T08:54:31.049Z,8.40
2019-02-10T08:57:00.286Z,8.45
2019-02-10T08:59:29.489Z,8.47
2019-02-10T09:01:58.752Z,8.48
2019-02-10T09:04:27.941Z,8.48
2019-02-10T09:06:57.127Z,8.49
2019-02-10T09:09:26.323Z,8.52
2019-02-10T09:11:55.510Z,8.51
2019-02-10T09:14:24.686Z,8.51
2019-02-10T09:16:53.895Z,8.45
2019-02-10T09:19:23.067Z,8.45
2019-02-10T09:21:52.245Z,8.52
2019-02-10T09:24:21.447Z,8.50
2019-02-10T09:26:50.625Z,8.56
2019-02-10T09:29:19.795Z,8.56
2019-02-10T09:31:49.015Z,8.40
2019-02-10T09:34:18.006Z,8.40
2019-02-10T09:36:47.192Z,8.41
2019-02-10T09:39:16.414Z,8.40
2019-02-10T09:41:45.619Z,8.29
2019-02-10T09:44:14.936Z,8.25
2019-02-10T09:46:44.352Z,8.17
2019-02-10T09:49:13.736Z,8.21
2019-02-10T09:51:43.007Z,8.28
2019-02-10T09:54:15.630Z,8.17
2019-02-10T09:56:46.740Z,8.13
2019-02-10T09:59:15.914Z,8.12
2019-02-10T10:01:46.950Z,7.98
2019-02-10T10:04:16.130Z,8.08
2019-02-10T10:06:45.315Z,8.09
2019-02-10T10:09:19.527Z,7.99
2019-02-10T10:11:45.409Z,7.93
2019-02-10T10:14:14.621Z,7.99
2019-02-10T10:16:43.858Z,7.92
2019-02-10T10:19:13.224Z,7.92
2019-02-10T10:21:42.417Z,7.91
2019-02-10T10:24:11.633Z,7.90
2019-02-10T10:26:40.850Z,7.97
2019-02-10T10:29:10.017Z,7.94
2019-02-10T10:31:39.239Z,7.87
2019-02-10T10:34:08.426Z,7.86
2019-02-10T10:36:37.635Z,7.94
2019-02-10T10:39:06.882Z,7.77
2019-02-10T10:41:36.078Z,7.93
2019-02-10T10:44:06.232Z,8.09
2019-02-10T10:46:38.801Z,8.30
2019-02-10T10:49:08.053Z,8.30
2019-02-10T10:51:37.195Z,8.28
2019-02-10T10:54:06.386Z,8.17
2019-02-10T10:56:35.566Z,7.98
2019-02-10T10:59:04.736Z,8.09
2019-02-10T11:01:33.995Z,8.17
2019-02-10T11:04:03.152Z,8.10
2019-02-10T11:06:33.985Z,8.17
2019-02-10T11:09:04.939Z,8.06
2019-02-10T11:11:34.177Z,8.02
2019-02-10T11:14:03.416Z,8.02
2019-02-10T11:16:32.636Z,8.05
2019-02-10T11:19:01.776Z,8.11
2019-02-10T11:21:30.950Z,8.07
2019-02-10T11:24:00.182Z,8.11
2019-02-10T11:26:30.240Z,8.05
2019-02-10T11:29:00.706Z,8.07
2019-02-10T11:31:29.925Z,7.91
2019-02-10T11:33:59.093Z,7.87
2019-02-10T11:36:28.268Z,7.90
2019-02-10T11:38:57.477Z,7.90
2019-02-10T11:41:26.652Z,8.10
2019-02-10T11:43:55.829Z,8.05
2019-02-10T11:46:24.924Z,7.97
2019-02-10T11:48:54.090Z,8.16
2019-02-10T11:51:23.254Z,8.22
2019-02-10T11:53:58.243Z,8.36
2019-02-10T11:56:28.334Z,8.44
2019-02-10T11:58:57.522Z,8.59
2019-02-10T12:01:26.871Z,8.73
2019-02-10T12:03:56.038Z,8.90
2019-02-10T12:06:25.416Z,8.99
2019-02-10T12:08:54.622Z,8.87
2019-02-10T12:11:23.835Z,8.90
2019-02-10T12:13:53.012Z,8.90
2019-02-10T12:16:22.204Z,8.96
2019-02-10T12:18:51.378Z,8.96
2019-02-10T12:21:20.558Z,8.97
2019-02-10T12:23:49.738Z,8.94
2019-02-10T12:26:18.902Z,8.77
2019-02-10T12:28:48.117Z,8.92
2019-02-10T12:31:17.302Z,8.77
2019-02-10T12:33:46.476Z,8.77
2019-02-10T12:36:15.647Z,8.78
2019-02-10T12:38:44.836Z,8.78
2019-02-10T12:41:14.439Z,8.70
2019-02-10T12:43:43.662Z,8.55
2019-02-10T12:46:12.836Z,8.55
2019-02-10T12:48:42.031Z,8.62
2019-02-10T12:51:11.289Z,8.58
2019-02-10T12:53:40.500Z,8.50
2019-02-10T12:56:09.693Z,8.54
2019-02-10T12:58:38.886Z,8.41
2019-02-10T13:01:08.099Z,8.42
2019-02-10T13:03:37.243Z,8.42
2019-02-10T13:06:06.431Z,8.42
2019-02-10T13:08:35.627Z,8.32
2019-02-10T13:11:04.885Z,8.36
2019-02-10T13:13:34.061Z,8.37
2019-02-10T13:16:03.227Z,8.35
2019-02-10T13:18:32.422Z,8.35
2019-02-10T13:21:01.578Z,8.26
2019-02-10T13:23:30.779Z,8.30
2019-02-10T13:25:59.952Z,8.30
2019-02-10T13:28:29.123Z,7.91
2019-02-10T13:30:58.334Z,7.91
2019-02-10T13:33:27.530Z,7.80
2019-02-10T13:35:56.692Z,7.90
2019-02-10T13:38:25.855Z,7.93
2019-02-10T13:40:55.048Z,7.98
2019-02-10T13:43:24.234Z,7.96
2019-02-10T13:45:53.486Z,7.94
2019-02-10T13:48:22.645Z,7.85
2019-02-10T13:50:51.824Z,7.80
2019-02-10T13:53:21.044Z,7.78
2019-02-10T13:55:50.171Z,7.78
2019-02-10T13:58:19.379Z,7.76
2019-02-10T14:00:48.564Z,7.78
2019-02-10T14:03:17.718Z,7.79
2019-02-10T14:05:46.911Z,7.82
2019-02-10T14:08:16.075Z,7.78
2019-02-10T14:10:45.242Z,7.73
2019-02-10T14:13:14.417Z,7.78
2019-02-10T14:15:43.588Z,7.75
2019-02-10T14:18:12.760Z,7.70
2019-02-10T14:20:41.957Z,7.70
2019-02-10T14:23:11.159Z,7.64
2019-02-10T14:25:40.358Z,7.12
2019-02-10T14:28:09.533Z,6.85
2019-02-10T14:30:38.707Z,6.88
2019-02-10T14:33:07.884Z,6.99
2019-02-10T14:35:37.073Z,6.95
2019-02-10T14:38:06.250Z,6.94
2019-02-10T14:40:35.451Z,6.73
2019-02-10T14:43:04.637Z,6.71
2019-02-10T14:45:33.814Z,6.75
2019-02-10T14:48:03.024Z,6.89
2019-02-10T14:50:32.207Z,6.89
2019-02-10T14:53:01.378Z,6.92
2019-02-10T14:55:30.582Z,7.04
2019-02-10T14:57:59.786Z,7.06
2019-02-10T15:00:28.971Z,7.16
2019-02-10T15:02:58.158Z,7.23
2019-02-10T15:05:28.344Z,7.29
2019-02-10T15:07:57.599Z,7.32
2019-02-10T15:10:26.795Z,7.36
2019-02-10T15:12:55.949Z,7.38
2019-02-10T15:15:25.120Z,7.36
2019-02-10T15:17:55.185Z,7.27
2019-02-10T15:20:24.404Z,7.27
2019-02-10T15:22:53.555Z,7.30
2019-02-10T15:25:22.738Z,7.30
2019-02-10T15:27:51.937Z,7.23
2019-02-10T15:30:21.102Z,7.21
2019-02-10T15:32:50.294Z,7.16
2019-02-10T15:35:19.496Z,7.05
2019-02-10T15:37:48.661Z,6.98
2019-02-10T15:40:17.832Z,6.74
2019-02-10T15:42:47.013Z,6.66
2019-02-10T15:45:16.182Z,6.61
2019-02-10T15:47:45.342Z,6.63
2019-02-10T15:50:15.220Z,6.56
2019-02-10T15:52:44.366Z,6.47
2019-02-10T15:55:14.269Z,6.46
2019-02-10T15:57:43.452Z,6.46
2019-02-10T16:00:15.865Z,6.38
2019-02-10T16:02:45.048Z,6.42
2019-02-10T16:05:14.253Z,6.36
2019-02-10T16:07:43.424Z,6.33
2019-02-10T16:10:12.665Z,6.30
2019-02-10T16:12:42.782Z,6.33
2019-02-10T16:15:12.791Z,6.28
2019-02-10T16:17:41.967Z,6.24
2019-02-10T16:20:15.132Z,6.20
2019-02-10T16:22:44.317Z,6.12
2019-02-10T16:25:13.487Z,6.07
2019-02-10T16:27:42.696Z,5.97
2019-02-10T16:30:16.884Z,5.91
2019-02-10T16:32:49.989Z,5.77
2019-02-10T16:35:17.034Z,5.77
2019-02-10T16:37:46.190Z,5.66
2019-02-10T16:40:18.101Z,5.65
2019-02-10T16:42:47.301Z,5.61
2019-02-10T16:45:16.470Z,5.56
2019-02-10T16:47:45.655Z,5.51
2019-02-10T16:50:18.270Z,5.48
2019-02-10T16:52:47.438Z,5.55
2019-02-10T16:55:18.987Z,5.58
2019-02-10T16:57:48.246Z,5.53
2019-02-10T17:00:17.772Z,5.50
2019-02-10T17:02:46.996Z,5.53
2019-02-10T17:05:16.172Z,5.52
2019-02-10T17:07:45.360Z,5.48
2019-02-10T17:10:16.161Z,5.48
2019-02-10T17:12:45.340Z,5.45
2019-02-10T17:15:14.648Z,5.59
2019-02-10T17:17:43.806Z,5.44
2019-02-10T17:20:13.826Z,5.48
2019-02-10T17:22:43.037Z,5.49
2019-02-10T17:25:29.277Z,5.52
2019-02-10T17:27:58.447Z,5.45
2019-02-10T17:30:27.613Z,5.41
2019-02-10T17:32:56.802Z,5.44
2019-02-10T17:35:29.053Z,5.50
2019-02-10T17:37:58.218Z,5.48
2019-02-10T17:40:33.230Z,5.50
2019-02-10T17:43:03.163Z,5.47
2019-02-10T17:45:32.579Z,5.52
2019-02-10T17:48:07.778Z,5.40
2019-02-10T17:50:38.755Z,5.40
2019-02-10T17:53:07.943Z,5.35
2019-02-10T17:55:37.147Z,5.25
2019-02-10T17:58:06.316Z,5.19
2019-02-10T18:00:37.131Z,5.26
2019-02-10T18:03:06.314Z,5.30
2019-02-10T18:05:35.487Z,5.33
2019-02-10T18:08:04.668Z,5.35
2019-02-10T18:10:33.906Z,5.31
2019-02-10T18:13:03.063Z,5.37
2019-02-10T18:15:49.153Z,5.24
2019-02-10T18:18:31.791Z,5.18
2019-02-10T18:21:02.620Z,5.08
2019-02-10T18:23:48.552Z,5.06
2019-02-10T18:26:25.442Z,5.03
2019-02-10T18:28:56.265Z,5.03
2019-02-10T18:31:28.124Z,5.09
2019-02-10T18:34:11.160Z,5.09
2019-02-10T18:36:58.014Z,5.04
2019-02-10T18:39:34.564Z,5.08
2019-02-10T18:42:20.748Z,5.05
2019-02-10T18:44:47.176Z,5.08
2019-02-10T18:47:33.036Z,5.11
2019-02-10T18:50:09.592Z,5.08
2019-02-10T18:52:40.401Z,5.13
2019-02-10T18:55:11.151Z,5.14
2019-02-10T18:57:53.991Z,5.24
2019-02-10T19:00:27.648Z,5.19
2019-02-10T19:03:04.824Z,5.26
2019-02-10T19:05:35.669Z,5.31
2019-02-10T19:08:09.185Z,5.32
2019-02-10T19:10:45.924Z,5.32
2019-02-10T19:13:19.315Z,5.38
2019-02-10T19:15:59.115Z,5.37
2019-02-10T19:18:40.081Z,5.41
2019-02-10T19:21:27.024Z,5.46
2019-02-10T19:23:57.845Z,5.42
2019-02-10T19:26:44.810Z,5.48
2019-02-10T19:29:21.263Z,5.51
2019-02-10T19:31:57.783Z,5.54
2019-02-10T19:34:28.725Z,5.58
2019-02-10T19:36:59.420Z,5.61
2019-02-10T19:39:45.527Z,5.64
2019-02-10T19:42:22.233Z,5.67
2019-02-10T19:45:09.485Z,5.70
2019-02-10T19:47:48.864Z,5.73
2019-02-10T19:50:19.689Z,5.71
2019-02-10T19:52:56.483Z,5.67
2019-02-10T19:55:32.926Z,5.65
2019-02-10T19:58:03.843Z,5.68
2019-02-10T20:00:34.644Z,5.67
2019-02-10T20:03:08.258Z,5.69
2019-02-10T20:05:55.465Z,5.68
2019-02-10T20:08:37.892Z,5.75
2019-02-10T20:11:08.705Z,5.71
2019-02-10T20:13:41.931Z,5.68
2019-02-10T20:16:15.828Z,5.70
2019-02-10T20:18:46.643Z,5.76
2019-02-10T20:21:26.491Z,5.78
2019-02-10T20:24:00.328Z,5.74
2019-02-10T20:26:45.978Z,5.76
2019-02-10T20:29:19.489Z,5.76
2019-02-10T20:31:50.319Z,5.72
2019-02-10T20:34:23.927Z,5.72
2019-02-10T20:36:54.753Z,5.71
2019-02-10T20:39:25.644Z,5.70
2019-02-10T20:42:12.205Z,5.72
2019-02-10T20:44:37.937Z,5.74
2019-02-10T20:47:11.380Z,5.73
2019-02-10T20:49:47.779Z,5.71
2019-02-10T20:52:21.430Z,5.71
2019-02-10T20:55:07.325Z,5.72
2019-02-10T20:57:46.889Z,5.77
2019-02-10T21:00:20.222Z,5.64
2019-02-10T21:02:51.039Z,5.57
2019-02-10T21:05:30.648Z,5.46
2019-02-10T21:08:19.830Z,5.35
2019-02-10T21:10:59.796Z,5.48
2019-02-10T21:13:39.374Z,5.40
2019-02-10T21:16:10.222Z,5.48
2019-02-10T21:18:43.553Z,5.52
2019-02-10T21:21:17.224Z,5.44
2019-02-10T21:23:53.716Z,5.53
2019-02-10T21:26:36.883Z,5.56
2019-02-10T21:29:16.669Z,5.63
2019-02-10T21:31:50.170Z,5.55
2019-02-10T21:34:30.078Z,5.58
2019-02-10T21:37:03.882Z,5.65
2019-02-10T21:39:40.670Z,5.65
2019-02-10T21:42:11.510Z,5.66
2019-02-10T21:44:47.992Z,5.73
2019-02-10T21:47:27.553Z,5.74
2019-02-10T21:49:56.744Z,5.83
2019-02-10T21:52:25.919Z,5.90
2019-02-10T21:54:55.109Z,5.95
2019-02-10T21:57:24.324Z,6.05
2019-02-10T21:59:53.502Z,6.18
2019-02-10T22:02:22.975Z,6.27
2019-02-10T22:04:52.155Z,6.37
2019-02-10T22:07:21.343Z,6.46
2019-02-10T22:09:50.536Z,6.47
2019-02-10T22:12:19.730Z,6.48
2019-02-10T22:14:48.913Z,6.50
2019-02-10T22:17:18.098Z,6.53
2019-02-10T22:19:47.290Z,6.52
2019-02-10T22:22:16.474Z,6.48
2019-02-10T22:24:45.652Z,6.43
2019-02-10T22:27:14.847Z,6.48
2019-02-10T22:29:44.037Z,6.45
2019-02-10T22:32:13.217Z,6.49
2019-02-10T22:34:42.437Z,6.36
2019-02-10T22:37:12.101Z,6.29
2019-02-10T22:39:41.414Z,6.27
2019-02-10T22:42:10.602Z,6.20
2019-02-10T22:44:39.807Z,6.11
2019-02-10T22:47:08.907Z,6.07
2019-02-10T22:49:38.083Z,6.03
2019-02-10T22:52:07.285Z,5.95
2019-02-10T22:54:36.476Z,5.93
2019-02-10T22:57:05.658Z,5.97
2019-02-10T22:59:34.871Z,5.96
2019-02-10T23:02:04.387Z,5.91
2019-02-10T23:04:33.598Z,5.84
2019-02-10T23:07:02.876Z,5.85
2019-02-10T23:09:32.043Z,5.82
2019-02-10T23:12:01.228Z,5.80
2019-02-10T23:14:30.496Z,5.82
2019-02-10T23:16:59.675Z,5.75
2019-02-10T23:19:28.846Z,5.65
2019-02-10T23:21:58.071Z,5.62
2019-02-10T23:24:27.287Z,5.51
2019-02-10T23:26:56.471Z,5.59
2019-02-10T23:29:25.661Z,5.67
2019-02-10T23:31:54.836Z,5.64
2019-02-10T23:34:24.009Z,5.81
2019-02-10T23:36:53.212Z,5.75
2019-02-10T23:39:22.379Z,5.78
2019-02-10T23:41:51.544Z,5.77
2019-02-10T23:44:20.750Z,5.56
2019-02-10T23:46:49.941Z,5.47
2019-02-10T23:49:19.128Z,5.45
2019-02-10T23:51:48.364Z,5.30
2019-02-10T23:54:17.540Z,5.35
2019-02-10T23:56:47.374Z,5.38
2019-02-10T23:59:16.590Z,5.37
